Time;durP1;ratioP1;P1;durP2;ratioP2;P2;SDS_P1;SDS_P2;PMS_P1;PMS_P2;Temp;Humidity;BMP_temperature;BMP_pressure;BME280_temperature;BME280_humidity;BME280_pressure;Samples;Min_cycle;Max_cycle;Signal;HPM_P1;HPM_P2
2021/10/22 00:02:17;;;;;;;3.37;3.00;;;13.70;99.90;;;;;;6229624;28;20488;-63
2021/10/22 00:05:20;;;;;;;3.50;3.20;;;13.80;99.90;;;;;;6229298;28;20475;-63
2021/10/22 00:08:24;;;;;;;4.50;3.10;;;13.70;99.90;;;;;;6228872;28;20487;-64
2021/10/22 00:11:28;;;;;;;3.57;2.50;;;13.70;99.90;;;;;;6227563;28;20479;-63
2021/10/22 00:14:31;;;;;;;3.70;2.77;;;13.60;99.90;;;;;;6228842;28;20471;-64
2021/10/22 00:17:36;;;;;;;3.77;2.90;;;13.60;99.90;;;;;;6229054;28;20553;-63
2021/10/22 00:20:39;;;;;;;4.33;3.03;;;13.60;99.90;;;;;;6228601;28;20480;-63
2021/10/22 00:23:42;;;;;;;2.70;2.50;;;13.60;99.90;;;;;;6228860;28;20472;-64
2021/10/22 00:26:45;;;;;;;3.23;2.50;;;13.60;99.90;;;;;;6228572;28;20467;-67
2021/10/22 00:29:49;;;;;;;4.93;3.27;;;13.60;99.90;;;;;;6228457;28;20834;-66
2021/10/22 00:32:54;;;;;;;4.30;2.97;;;13.60;99.90;;;;;;6228412;28;20472;-64
2021/10/22 00:35:57;;;;;;;2.80;2.60;;;13.50;99.90;;;;;;6228345;28;20475;-64
2021/10/22 00:39:00;;;;;;;2.80;2.60;;;13.40;99.90;;;;;;6227823;28;20882;-67
2021/10/22 00:42:04;;;;;;;2.90;2.07;;;13.40;99.90;;;;;;6228822;28;20467;-65
2021/10/22 00:45:09;;;;;;;3.10;2.80;;;13.40;99.90;;;;;;6228501;28;20476;-65
2021/10/22 00:48:14;;;;;;;2.97;2.67;;;13.30;99.90;;;;;;6229061;28;20479;-66
2021/10/22 00:51:18;;;;;;;3.60;2.27;;;13.20;99.90;;;;;;6228111;28;20480;-67
2021/10/22 00:54:21;;;;;;;2.97;2.53;;;13.10;99.90;;;;;;6227775;28;21166;-66
2021/10/22 00:57:24;;;;;;;4.07;2.37;;;13.10;99.90;;;;;;6227803;28;20479;-67
2021/10/22 01:00:28;;;;;;;2.13;1.93;;;13.10;99.90;;;;;;6222196;28;20498;-66
2021/10/22 01:03:33;;;;;;;5.40;2.40;;;13.10;99.90;;;;;;6227604;28;20483;-64
2021/10/22 01:06:37;;;;;;;3.83;2.50;;;13.00;99.90;;;;;;6227708;28;20498;-65
2021/10/22 01:09:41;;;;;;;4.33;3.13;;;13.00;99.90;;;;;;6227410;28;20554;-64
2021/10/22 01:12:45;;;;;;;4.97;2.80;;;12.90;99.90;;;;;;6252080;28;20786;-63
2021/10/22 01:15:48;;;;;;;2.77;2.57;;;12.90;99.90;;;;;;6252287;28;20439;-63
2021/10/22 01:18:52;;;;;;;2.37;2.17;;;12.80;99.90;;;;;;6276814;28;20576;-63
2021/10/22 01:21:57;;;;;;;4.50;2.40;;;12.80;99.90;;;;;;6276671;28;20442;-64
2021/10/22 01:25:01;;;;;;;3.53;2.20;;;12.80;99.90;;;;;;6276623;28;20493;-63
2021/10/22 01:28:06;;;;;;;2.23;2.03;;;12.80;99.90;;;;;;6276642;28;20490;-64
2021/10/22 01:31:09;;;;;;;1.80;1.70;;;12.80;99.90;;;;;;6276289;28;20473;-64
2021/10/22 01:34:13;;;;;;;2.60;2.00;;;12.80;99.90;;;;;;6276447;28;20474;-63
2021/10/22 01:37:17;;;;;;;3.17;1.97;;;12.70;99.90;;;;;;6276539;28;20473;-63
2021/10/22 01:40:20;;;;;;;3.77;2.83;;;12.70;99.90;;;;;;6276280;28;20466;-63
2021/10/22 01:43:24;;;;;;;2.23;2.03;;;12.60;99.90;;;;;;6276114;28;20780;-66
2021/10/22 01:46:27;;;;;;;3.83;2.40;;;12.60;99.90;;;;;;6275973;28;20470;-66
2021/10/22 01:49:31;;;;;;;2.17;1.97;;;12.60;99.90;;;;;;6275787;28;20553;-66
2021/10/22 01:52:35;;;;;;;3.47;2.40;;;12.50;99.90;;;;;;6275867;28;20486;-66
2021/10/22 01:55:38;;;;;;;2.73;2.33;;;12.50;99.90;;;;;;6276964;28;20485;-66
2021/10/22 01:58:42;;;;;;;3.50;2.07;;;12.40;99.90;;;;;;6277462;28;20482;-66
2021/10/22 02:01:45;;;;;;;4.13;2.93;;;12.40;99.90;;;;;;6275483;28;20466;-63
2021/10/22 02:04:48;;;;;;;2.40;2.00;;;12.30;99.90;;;;;;6275290;28;20973;-66
2021/10/22 02:07:53;;;;;;;4.73;2.40;;;12.40;99.90;;;;;;6276228;28;20501;-66
2021/10/22 02:10:56;;;;;;;3.80;2.67;;;12.30;99.90;;;;;;6274922;28;20946;-66
2021/10/22 02:13:59;;;;;;;2.63;2.43;;;12.30;99.90;;;;;;6275782;28;20800;-66
2021/10/22 02:17:02;;;;;;;3.10;2.47;;;12.30;99.90;;;;;;6275029;28;21024;-67
2021/10/22 02:20:07;;;;;;;3.07;2.73;;;12.20;99.90;;;;;;6275499;28;20481;-66
2021/10/22 02:23:11;;;;;;;3.63;2.70;;;12.20;99.90;;;;;;6275531;28;20485;-66
2021/10/22 02:26:14;;;;;;;3.40;2.13;;;12.10;99.90;;;;;;6275430;28;20486;-66
2021/10/22 02:29:18;;;;;;;3.80;2.80;;;12.10;99.90;;;;;;6274998;28;20473;-66
2021/10/22 02:32:21;;;;;;;3.73;2.97;;;12.00;99.90;;;;;;6274918;28;20465;-67
2021/10/22 02:35:24;;;;;;;3.83;2.63;;;12.00;99.90;;;;;;6274778;28;20469;-67
2021/10/22 02:38:28;;;;;;;3.00;2.70;;;12.00;99.90;;;;;;6274915;28;20477;-66
2021/10/22 02:41:33;;;;;;;3.40;3.10;;;11.90;99.90;;;;;;6274894;28;20903;-67
2021/10/22 02:44:36;;;;;;;4.10;2.87;;;11.80;99.90;;;;;;6274416;28;20509;-67
2021/10/22 02:47:39;;;;;;;3.27;2.97;;;11.70;99.90;;;;;;6274857;28;20477;-67
2021/10/22 02:50:43;;;;;;;3.30;2.60;;;11.70;99.90;;;;;;6274825;28;20493;-66
2021/10/22 02:53:47;;;;;;;3.10;2.80;;;11.70;99.90;;;;;;6274582;28;20474;-66
2021/10/22 02:56:50;;;;;;;5.70;3.00;;;11.70;99.90;;;;;;6274315;28;20852;-66
2021/10/22 02:59:53;;;;;;;3.90;3.50;;;11.70;99.90;;;;;;6274710;28;20485;-65
2021/10/22 03:02:56;;;;;;;3.43;3.13;;;11.70;99.90;;;;;;6274427;28;20809;-66
2021/10/22 03:06:00;;;;;;;3.70;3.20;;;11.70;99.90;;;;;;6274941;28;20894;-66
2021/10/22 03:09:04;;;;;;;6.70;3.50;;;11.70;99.90;;;;;;6265064;28;20493;-66
2021/10/22 03:12:08;;;;;;;5.73;3.40;;;11.70;99.90;;;;;;6275100;28;20466;-66
2021/10/22 03:15:11;;;;;;;3.63;3.33;;;11.70;99.90;;;;;;6274548;28;20473;-68
2021/10/22 03:18:14;;;;;;;4.90;3.53;;;11.60;99.90;;;;;;6275099;28;20462;-66
2021/10/22 03:21:19;;;;;;;4.77;3.77;;;11.60;99.90;;;;;;6274561;28;20799;-66
2021/10/22 03:24:23;;;;;;;3.73;2.83;;;11.60;99.90;;;;;;6274485;28;20486;-67
2021/10/22 03:27:27;;;;;;;3.00;2.63;;;11.60;99.90;;;;;;6274533;28;20474;-67
2021/10/22 03:30:30;;;;;;;4.70;2.60;;;11.50;99.90;;;;;;6274107;28;20544;-67
2021/10/22 03:33:33;;;;;;;4.03;2.10;;;11.50;99.90;;;;;;6274302;28;20907;-67
2021/10/22 03:36:36;;;;;;;2.67;2.47;;;11.50;99.90;;;;;;6274238;28;20810;-67
2021/10/22 03:39:41;;;;;;;5.50;2.73;;;11.40;99.90;;;;;;6273739;28;20966;-67
2021/10/22 03:42:44;;;;;;;3.43;2.67;;;11.40;99.90;;;;;;6273785;28;20496;-67
2021/10/22 03:45:48;;;;;;;4.43;2.70;;;11.30;99.90;;;;;;6277155;28;20482;-67
2021/10/22 03:48:51;;;;;;;2.83;2.40;;;11.30;99.90;;;;;;6278435;28;20933;-66
2021/10/22 03:51:54;;;;;;;3.47;2.90;;;11.30;99.90;;;;;;6278575;28;20441;-67
2021/10/22 03:54:59;;;;;;;4.03;2.50;;;11.30;99.90;;;;;;6278474;28;20932;-67
2021/10/22 03:58:03;;;;;;;4.30;2.43;;;11.20;99.90;;;;;;6278695;28;20541;-66
2021/10/22 04:01:06;;;;;;;3.50;2.80;;;11.20;99.90;;;;;;6279059;28;20461;-67
2021/10/22 04:04:09;;;;;;;2.80;2.60;;;11.20;99.90;;;;;;6278670;28;20806;-67
2021/10/22 04:07:12;;;;;;;2.93;2.70;;;11.30;99.90;;;;;;6278847;28;20477;-66
2021/10/22 04:10:17;;;;;;;5.37;3.00;;;11.30;99.90;;;;;;6279491;28;20476;-67
2021/10/22 04:13:20;;;;;;;3.73;2.90;;;11.30;99.90;;;;;;6281175;28;20474;-66
2021/10/22 04:16:23;;;;;;;3.73;2.90;;;11.30;99.90;;;;;;6279248;28;20481;-67
2021/10/22 04:19:27;;;;;;;6.40;2.90;;;11.30;99.90;;;;;;6279208;28;20469;-66
2021/10/22 04:22:30;;;;;;;3.53;2.60;;;11.30;99.90;;;;;;6281161;28;20477;-66
2021/10/22 04:25:35;;;;;;;3.87;2.27;;;11.30;99.90;;;;;;6278764;28;20961;-68
2021/10/22 04:28:38;;;;;;;4.37;2.90;;;11.20;99.90;;;;;;6279071;28;20500;-68
2021/10/22 04:31:41;;;;;;;2.87;2.63;;;11.10;99.90;;;;;;6278866;28;20488;-68
2021/10/22 04:34:45;;;;;;;2.77;2.27;;;11.10;99.90;;;;;;6279149;28;20615;-67
2021/10/22 04:38:00;;;;;;;3.57;2.53;;;11.00;99.90;;;;;;6279144;28;20484;-69
2021/10/22 04:41:03;;;;;;;3.00;2.70;;;11.00;99.90;;;;;;6279828;28;20485;-67
2021/10/22 04:44:07;;;;;;;6.43;3.30;;;11.00;99.90;;;;;;6279696;28;20474;-67
2021/10/22 04:47:10;;;;;;;4.73;2.80;;;10.90;99.90;;;;;;6278596;28;20485;-67
2021/10/22 04:50:13;;;;;;;4.53;2.97;;;10.90;99.90;;;;;;6279601;28;20474;-67
2021/10/22 04:53:17;;;;;;;5.67;3.70;;;10.90;99.90;;;;;;6280732;28;20472;-68
2021/10/22 04:56:22;;;;;;;8.40;3.10;;;10.90;99.90;;;;;;6277850;28;20474;-67
2021/10/22 04:59:25;;;;;;;3.33;3.03;;;10.90;99.90;;;;;;6278528;28;20481;-67
2021/10/22 05:02:28;;;;;;;3.40;3.07;;;10.90;99.90;;;;;;6278657;28;20779;-68
2021/10/22 05:05:32;;;;;;;4.03;3.17;;;10.90;99.90;;;;;;6279978;28;20477;-67
2021/10/22 05:08:35;;;;;;;3.70;3.40;;;10.90;99.90;;;;;;6280883;28;20481;-66
2021/10/22 05:11:39;;;;;;;3.83;3.20;;;10.90;99.90;;;;;;6282547;28;20478;-68
2021/10/22 05:14:43;;;;;;;4.10;3.20;;;10.80;99.90;;;;;;6280292;28;20466;-67
2021/10/22 05:17:46;;;;;;;3.90;3.17;;;10.70;99.90;;;;;;6268622;28;20928;-67
2021/10/22 05:20:50;;;;;;;4.67;4.20;;;10.70;99.90;;;;;;6277083;28;20497;-66
2021/10/22 05:23:53;;;;;;;4.07;3.47;;;10.70;99.90;;;;;;6276952;28;20790;-66
2021/10/22 05:26:58;;;;;;;4.80;3.57;;;10.60;99.90;;;;;;6276851;28;20478;-66
2021/10/22 05:30:01;;;;;;;5.40;4.17;;;10.70;99.90;;;;;;6276592;28;20475;-67
2021/10/22 05:33:05;;;;;;;4.17;3.63;;;10.60;99.90;;;;;;6276423;28;20972;-67
2021/10/22 05:36:08;;;;;;;6.63;4.47;;;10.70;99.90;;;;;;6276491;28;20481;-67
2021/10/22 05:39:12;;;;;;;6.90;5.63;;;10.60;99.90;;;;;;6276875;28;20485;-67
2021/10/22 05:42:17;;;;;;;7.87;7.07;;;10.70;99.90;;;;;;6276325;28;20527;-67
2021/10/22 05:45:20;;;;;;;7.90;6.27;;;10.70;99.90;;;;;;6275910;28;20557;-67
2021/10/22 05:48:23;;;;;;;8.20;6.13;;;10.80;99.90;;;;;;6276436;28;20486;-65
2021/10/22 05:51:26;;;;;;;5.77;4.17;;;10.90;99.90;;;;;;6276072;28;20840;-66
2021/10/22 05:54:29;;;;;;;5.70;4.50;;;10.90;99.90;;;;;;6276158;28;20848;-67
2021/10/22 05:57:34;;;;;;;6.67;3.77;;;11.00;99.90;;;;;;6275486;28;20474;-67
2021/10/22 06:00:37;;;;;;;4.57;4.13;;;11.10;99.90;;;;;;6276161;28;20858;-67
2021/10/22 06:03:41;;;;;;;9.67;6.97;;;11.20;99.90;;;;;;6276094;28;20826;-66
2021/10/22 06:06:44;;;;;;;6.73;5.97;;;11.20;99.90;;;;;;6276426;28;20803;-66
2021/10/22 06:09:47;;;;;;;6.27;4.60;;;11.30;99.90;;;;;;6275532;28;20466;-65
2021/10/22 06:12:52;;;;;;;5.40;4.90;;;11.40;99.90;;;;;;6275415;28;20863;-67
2021/10/22 06:15:55;;;;;;;5.40;4.90;;;11.40;99.90;;;;;;6275440;28;20445;-67
2021/10/22 06:19:02;;;;;;;6.17;5.60;;;11.50;99.90;;;;;;6266262;28;20550;-66
2021/10/22 06:22:15;;;;;;;6.30;5.70;;;11.60;99.90;;;;;;6275833;28;20717;-66
2021/10/22 06:25:20;;;;;;;12.63;4.90;;;11.70;99.90;;;;;;6276252;28;20462;-66
2021/10/22 06:28:24;;;;;;;7.10;5.97;;;11.80;99.90;;;;;;6275708;28;20489;-66
2021/10/22 06:31:28;;;;;;;7.33;5.40;;;11.80;99.90;;;;;;6275681;28;20470;-66
2021/10/22 06:34:31;;;;;;;7.97;5.17;;;11.90;99.90;;;;;;6275175;28;20470;-66
2021/10/22 06:37:34;;;;;;;6.77;5.47;;;11.90;99.90;;;;;;6275108;28;20841;-66
2021/10/22 06:40:37;;;;;;;5.97;4.80;;;12.00;99.90;;;;;;6275555;28;20474;-67
2021/10/22 06:43:43;;;;;;;6.07;5.30;;;12.10;99.90;;;;;;6276063;28;20482;-67
2021/10/22 06:46:46;;;;;;;6.60;5.30;;;12.30;99.90;;;;;;6275335;28;20470;-67
2021/10/22 06:49:50;;;;;;;6.57;5.10;;;12.60;99.90;;;;;;6275822;28;20477;-67
2021/10/22 06:52:53;;;;;;;6.33;5.07;;;12.80;99.90;;;;;;6276323;28;20484;-67
2021/10/22 06:55:56;;;;;;;5.63;5.00;;;13.00;99.90;;;;;;6276921;28;20477;-67
2021/10/22 06:59:01;;;;;;;7.57;5.30;;;13.10;99.90;;;;;;6276191;28;20500;-66
2021/10/22 07:02:04;;;;;;;7.97;4.90;;;13.30;99.90;;;;;;6274716;28;20473;-66
2021/10/22 07:05:14;;;;;;;5.13;4.53;;;13.30;99.90;;;;;;6275109;28;20516;-66
2021/10/22 07:08:17;;;;;;;10.93;5.20;;;13.20;99.90;;;;;;6275714;28;20787;-66
2021/10/22 07:11:20;;;;;;;9.20;5.30;;;13.20;99.90;;;;;;6275451;28;21004;-67
2021/10/22 07:14:28;;;;;;;9.30;6.13;;;13.30;99.90;;;;;;6275316;28;20474;-67
2021/10/22 07:17:31;;;;;;;6.00;5.50;;;13.30;99.90;;;;;;6275709;28;20469;-66
2021/10/22 07:20:35;;;;;;;6.43;4.90;;;13.30;99.90;;;;;;6278848;28;20476;-67
2021/10/22 07:23:40;;;;;;;8.23;6.20;;;13.40;99.90;;;;;;6281300;28;20465;-67
2021/10/22 07:26:44;;;;;;;6.00;5.17;;;13.60;99.90;;;;;;6280393;28;20478;-67
2021/10/22 07:29:48;;;;;;;6.73;6.00;;;13.80;99.90;;;;;;6280156;28;20485;-67
2021/10/22 07:32:51;;;;;;;6.67;5.30;;;13.90;99.90;;;;;;6280445;28;20485;-64
2021/10/22 07:35:56;;;;;;;8.80;6.63;;;14.00;99.90;;;;;;6281819;28;20801;-63
2021/10/22 07:38:59;;;;;;;6.37;5.27;;;14.10;99.90;;;;;;6280376;28;20482;-63
2021/10/22 07:42:03;;;;;;;6.27;4.90;;;14.20;99.90;;;;;;6280519;28;20508;-63
2021/10/22 07:45:26;;;;;;;7.30;5.70;;;14.20;99.70;;;;;;6279470;28;20978;-66
2021/10/22 07:48:32;;;;;;;5.30;4.80;;;14.30;99.70;;;;;;6279805;28;20478;-66
2021/10/22 07:51:35;;;;;;;7.23;6.53;;;14.40;99.70;;;;;;6279898;28;20470;-67
2021/10/22 07:54:39;;;;;;;7.00;5.93;;;14.70;99.60;;;;;;6279798;28;20464;-67
2021/10/22 07:57:42;;;;;;;7.37;6.10;;;14.90;98.60;;;;;;6247749;28;20879;-67
2021/10/22 08:00:46;;;;;;;6.80;5.37;;;15.10;98.00;;;;;;6218753;28;20472;-66
2021/10/22 08:03:50;;;;;;;5.30;4.80;;;15.20;97.60;;;;;;6224299;28;20543;-67
2021/10/22 08:06:53;;;;;;;6.03;3.67;;;15.50;97.20;;;;;;6221113;28;20491;-66
2021/10/22 08:09:58;;;;;;;4.47;4.07;;;15.80;96.90;;;;;;6204503;28;20480;-66
2021/10/22 08:13:02;;;;;;;6.50;3.50;;;16.10;96.40;;;;;;6205173;28;20436;-65
2021/10/22 08:16:17;;;;;;;5.20;4.70;;;16.30;95.30;;;;;;6221036;28;20471;-65
2021/10/22 08:19:20;;;;;;;4.77;4.30;;;16.70;95.20;;;;;;6229116;28;20476;-65
2021/10/22 08:22:27;;;;;;;4.10;3.57;;;17.00;94.50;;;;;;6228810;28;20460;-66
2021/10/22 08:25:31;;;;;;;4.07;3.67;;;17.10;93.70;;;;;;6229488;28;20478;-64
2021/10/22 08:28:34;;;;;;;7.33;3.60;;;16.90;93.30;;;;;;6229083;28;20475;-65
2021/10/22 08:31:39;;;;;;;4.33;3.93;;;16.60;93.70;;;;;;6225450;28;20486;-64
2021/10/22 08:34:42;;;;;;;4.97;4.33;;;16.40;94.10;;;;;;6205981;28;20468;-64
2021/10/22 08:37:46;;;;;;;4.53;3.87;;;16.20;94.40;;;;;;6204237;28;20881;-64
2021/10/22 08:40:50;;;;;;;4.93;4.50;;;16.20;94.90;;;;;;6204541;28;20484;-64
2021/10/22 08:43:54;;;;;;;4.27;3.60;;;16.20;94.90;;;;;;6205301;28;20472;-66
2021/10/22 08:47:01;;;;;;;4.90;3.47;;;16.00;94.90;;;;;;6206580;28;20473;-64
2021/10/22 08:50:07;;;;;;;4.63;3.30;;;15.90;95.60;;;;;;6203738;28;20902;-64
2021/10/22 08:53:11;;;;;;;4.17;3.43;;;15.80;95.80;;;;;;6203622;28;20476;-64
2021/10/22 08:56:14;;;;;;;4.20;3.53;;;15.80;95.90;;;;;;6204006;28;20468;-64
2021/10/22 08:59:17;;;;;;;5.17;3.30;;;15.70;96.10;;;;;;6212194;28;20487;-64
2021/10/22 09:02:25;;;;;;;3.07;2.77;;;15.70;96.60;;;;;;6227725;28;20471;-63
2021/10/22 09:05:29;;;;;;;6.00;3.00;;;15.60;97.00;;;;;;6228409;28;20477;-63
2021/10/22 09:08:34;;;;;;;8.70;3.07;;;15.60;97.30;;;;;;6203142;28;20487;-64
2021/10/22 09:11:49;;;;;;;4.20;2.87;;;16.00;97.80;;;;;;6203076;28;20488;-61
2021/10/22 09:14:59;;;;;;;5.97;2.60;;;16.30;97.10;;;;;;6203103;28;20813;-62
2021/10/22 09:18:14;;;;;;;5.43;2.70;;;16.80;96.30;;;;;;6203100;28;20530;-63
2021/10/22 09:21:26;;;;;;;3.87;3.20;;;17.20;95.30;;;;;;6202746;28;20500;-65
2021/10/22 09:24:33;;;;;;;2.77;2.43;;;17.90;94.40;;;;;;6203165;28;20865;-64
2021/10/22 09:27:48;;;;;;;3.60;3.13;;;18.10;93.50;;;;;;6203199;28;20484;-64
2021/10/22 09:30:51;;;;;;;3.50;2.87;;;18.10;93.00;;;;;;6223608;28;20244;-65
2021/10/22 09:33:58;;;;;;;3.00;2.80;;;18.00;92.80;;;;;;6240043;28;20450;-63
2021/10/22 09:37:02;;;;;;;5.10;3.03;;;17.80;93.30;;;;;;6251768;28;20435;-64
2021/10/22 09:40:07;;;;;;;3.33;2.97;;;17.70;93.70;;;;;;6251191;28;20467;-64
2021/10/22 09:43:22;;;;;;;4.60;3.20;;;17.60;93.90;;;;;;6251234;28;20474;-63
2021/10/22 09:46:25;;;;;;;3.70;2.53;;;17.70;94.00;;;;;;6251010;28;20483;-64
2021/10/22 09:49:30;;;;;;;5.00;4.30;;;18.10;93.50;;;;;;6251401;28;20506;-64
2021/10/22 09:52:33;;;;;;;5.80;4.40;;;18.20;92.90;;;;;;6250746;28;20463;-64
2021/10/22 09:55:37;;;;;;;3.83;2.60;;;18.50;92.80;;;;;;6250313;28;20978;-62
2021/10/22 09:58:40;;;;;;;2.83;2.53;;;18.70;92.60;;;;;;6249781;28;20236;-62
2021/10/22 10:01:44;;;;;;;3.50;3.20;;;18.80;91.90;;;;;;6254859;28;20560;-63
2021/10/22 10:04:51;;;;;;;2.87;2.57;;;19.70;91.60;;;;;;6240384;28;20599;-64
2021/10/22 10:07:55;;;;;;;2.80;2.50;;;24.40;80.70;;;;;;6214750;28;20703;-65
2021/10/22 10:10:58;;;;;;;2.90;2.60;;;27.30;59.40;;;;;;6257716;28;20227;-64
2021/10/22 10:14:02;;;;;;;3.93;3.10;;;26.80;57.20;;;;;;6275727;28;20292;-64
2021/10/22 10:17:06;;;;;;;4.73;2.80;;;28.10;54.40;;;;;;6269438;28;20234;-63
2021/10/22 10:20:17;;;;;;;4.20;2.23;;;30.20;48.60;;;;;;6245320;28;20236;-65
2021/10/22 10:23:21;;;;;;;3.20;2.53;;;30.80;45.60;;;;;;6216551;28;20232;-65
2021/10/22 10:26:28;;;;;;;3.63;3.10;;;29.90;44.40;;;;;;6217039;28;20239;-66
2021/10/22 10:29:34;;;;;;;3.27;2.83;;;28.90;45.80;;;;;;6215675;28;20649;-65
2021/10/22 10:32:43;;;;;;;3.67;2.78;;;30.10;45.00;;;;;;6240078;28;20235;-65
2021/10/22 10:35:49;;;;;;;3.08;2.35;;;33.40;39.70;;;;;;6249817;28;20561;-65
2021/10/22 10:38:52;;;;;;;5.05;3.20;;;34.30;35.40;;;;;;6212095;28;20251;-66
2021/10/22 10:42:19;;;;;;;2.95;2.75;;;32.60;36.20;;;;;;6214117;28;20216;-63
2021/10/22 10:45:42;;;;;;;4.57;2.90;;;30.00;39.30;;;;;;6214597;28;20221;-64
2021/10/22 10:48:49;;;;;;;2.70;2.50;;;28.50;42.20;;;;;;6251079;28;20550;-64
2021/10/22 10:51:53;;;;;;;3.50;3.20;;;27.50;44.20;;;;;;6235788;28;20258;-66
2021/10/22 10:55:13;;;;;;;5.70;3.57;;;26.60;46.00;;;;;;6214906;28;20534;-65
2021/10/22 10:58:19;;;;;;;3.77;2.70;;;25.60;48.30;;;;;;6208862;28;20233;-65
2021/10/22 11:01:25;;;;;;;5.13;3.33;;;26.90;48.20;;;;;;6222661;28;20242;-64
2021/10/22 11:04:46;;;;;;;5.00;3.37;;;28.80;44.50;;;;;;6234425;28;20556;-68
2021/10/22 11:08:11;;;;;;;3.47;3.17;;;29.60;41.50;;;;;;6224760;28;20229;-65
2021/10/22 11:11:29;;;;;;;3.63;3.27;;;30.30;41.70;;;;;;6210759;28;20660;-67
2021/10/22 11:14:41;;;;;;;3.63;3.33;;;31.20;40.60;;;;;;6210034;28;20247;-66
2021/10/22 11:17:44;;;;;;;3.47;3.05;;;32.30;38.10;;;;;;6221180;28;20718;-65
2021/10/22 11:20:49;;;;;;;3.42;2.80;;;32.10;37.10;;;;;;6232483;28;20589;-68
2021/10/22 11:23:55;;;;;;;3.22;2.80;;;31.50;37.90;;;;;;6223925;28;20232;-65
2021/10/22 11:27:01;;;;;;;4.65;4.18;;;32.90;36.20;;;;;;6224278;28;20232;-70
2021/10/22 11:30:05;;;;;;;4.32;3.28;;;32.40;36.70;;;;;;6205714;28;20237;-67
2021/10/22 11:33:09;;;;;;;4.63;4.23;;;30.90;37.80;;;;;;6220110;28;20236;-64
2021/10/22 11:36:18;;;;;;;4.40;4.00;;;29.10;40.70;;;;;;6223482;28;20228;-64
2021/10/22 11:39:24;;;;;;;4.80;4.30;;;27.20;44.00;;;;;;6199078;28;20670;-67
2021/10/22 11:42:30;;;;;;;4.70;4.30;;;26.00;47.50;;;;;;6197928;28;20709;-66
2021/10/22 11:45:33;;;;;;;4.93;3.87;;;28.30;44.70;;;;;;6200790;28;20224;-64
2021/10/22 11:48:36;;;;;;;3.40;3.10;;;30.90;41.60;;;;;;6222078;28;20232;-67
2021/10/22 11:51:39;;;;;;;3.70;3.38;;;34.40;36.30;;;;;;6222127;28;20572;-64
2021/10/22 11:54:47;;;;;;;4.00;3.60;;;36.20;32.30;;;;;;6222373;28;20234;-68
2021/10/22 11:57:50;;;;;;;4.70;3.35;;;37.50;30.70;;;;;;6222808;28;20236;-64
2021/10/22 12:00:55;;;;;;;4.90;3.25;;;38.10;29.50;;;;;;6229002;23;20251;-68
2021/10/22 12:04:00;;;;;;;3.67;3.38;;;37.20;29.80;;;;;;6222307;28;20861;-64
2021/10/22 12:07:08;;;;;;;4.38;3.22;;;37.60;29.30;;;;;;6226049;28;20531;-65
2021/10/22 12:10:15;;;;;;;3.88;3.53;;;38.70;28.00;;;;;;6227575;28;20232;-64
2021/10/22 12:13:28;;;;;;;3.58;3.28;;;40.20;27.00;;;;;;6229139;28;20224;-65
2021/10/22 12:16:31;;;;;;;3.50;3.10;;;40.40;26.30;;;;;;6228755;28;20247;-65
2021/10/22 12:19:34;;;;;;;2.80;2.60;;;41.80;25.20;;;;;;6228640;28;20667;-66
2021/10/22 12:22:40;;;;;;;2.83;2.63;;;42.00;24.80;;;;;;6228558;28;20231;-66
2021/10/22 12:25:46;;;;;;;3.50;3.08;;;42.70;24.10;;;;;;6228980;28;20249;-65
2021/10/22 12:29:00;;;;;;;5.65;3.78;;;42.90;23.10;;;;;;6228330;28;20811;-65
2021/10/22 12:32:04;;;;;;;4.07;3.45;;;39.50;25.20;;;;;;6228248;28;20239;-66
2021/10/22 12:35:24;;;;;;;4.45;4.03;;;36.20;28.40;;;;;;6228516;28;20236;-66
2021/10/22 12:38:32;;;;;;;4.43;3.70;;;35.50;29.80;;;;;;6227371;28;20668;-66
2021/10/22 12:41:39;;;;;;;4.93;4.30;;;37.40;28.20;;;;;;6228245;28;20292;-64
2021/10/22 12:44:42;;;;;;;5.75;3.65;;;39.20;26.70;;;;;;6227854;28;20239;-66
2021/10/22 12:47:47;;;;;;;4.68;4.28;;;40.10;25.90;;;;;;6227993;28;20238;-65
2021/10/22 12:50:51;;;;;;;3.80;3.50;;;40.90;25.00;;;;;;6227446;28;20239;-66
2021/10/22 12:54:02;;;;;;;4.10;3.80;;;41.40;24.70;;;;;;6227575;28;20238;-66
2021/10/22 12:57:07;;;;;;;4.25;3.85;;;41.00;24.60;;;;;;6227469;28;20239;-66
2021/10/22 13:00:23;;;;;;;3.75;3.20;;;40.20;25.10;;;;;;6226951;28;20570;-67
2021/10/22 13:03:29;;;;;;;3.85;3.58;;;40.60;25.00;;;;;;6227266;28;20232;-66
2021/10/22 13:06:46;;;;;;;4.32;3.92;;;41.70;24.20;;;;;;6227671;28;20675;-66
2021/10/22 13:09:54;;;;;;;3.80;3.45;;;42.20;23.50;;;;;;6227142;28;20602;-68
2021/10/22 13:13:03;;;;;;;6.63;3.85;;;41.80;23.40;;;;;;6227057;28;20208;-65
2021/10/22 13:22:54;;;;;;;3.70;3.40;;;40.90;24.10;;;;;;6203187;28;20221;-66
2021/10/22 13:25:57;;;;;;;3.58;3.30;;;40.40;24.50;;;;;;6202341;28;20291;-65
2021/10/22 13:29:02;;;;;;;4.30;3.50;;;39.90;25.00;;;;;;6203110;28;20241;-66
2021/10/22 13:32:05;;;;;;;5.03;3.60;;;39.10;25.40;;;;;;6202438;28;20233;-67
2021/10/22 13:35:09;;;;;;;3.55;3.25;;;37.80;26.50;;;;;;6201976;28;20688;-69
2021/10/22 13:38:14;;;;;;;4.18;3.78;;;36.50;27.70;;;;;;6202061;28;20217;-66
2021/10/22 13:41:22;;;;;;;5.60;3.92;;;34.30;29.50;;;;;;6202047;28;20233;-65
2021/10/22 13:44:26;;;;;;;4.45;4.05;;;32.00;32.30;;;;;;6202088;28;20244;-66
2021/10/22 13:47:29;;;;;;;5.80;4.90;;;30.20;35.30;;;;;;6201843;28;20233;-68
2021/10/22 13:50:33;;;;;;;4.53;4.13;;;28.10;38.60;;;;;;6192965;28;20556;-64
2021/10/22 13:53:37;;;;;;;4.77;3.40;;;26.10;42.60;;;;;;6201970;28;20572;-65
2021/10/22 13:56:41;;;;;;;5.77;3.47;;;24.80;45.40;;;;;;6202236;28;20237;-67
2021/10/22 13:59:45;;;;;;;4.23;3.93;;;23.50;48.30;;;;;;6201612;28;20245;-67
2021/10/22 14:02:49;;;;;;;3.93;3.53;;;22.60;50.50;;;;;;6217750;28;20239;-65
2021/10/22 14:05:52;;;;;;;4.30;3.60;;;22.00;52.40;;;;;;6225705;28;20225;-64
2021/10/22 14:08:56;;;;;;;4.03;3.30;;;21.50;53.60;;;;;;6226137;28;20734;-64
2021/10/22 14:12:05;;;;;;;4.40;3.93;;;21.20;54.60;;;;;;6226183;28;20237;-66
2021/10/22 14:15:23;;;;;;;4.37;3.30;;;20.60;56.60;;;;;;6226308;28;20248;-66
2021/10/22 14:28:51;;;;;;;3.37;3.13;;;19.40;62.60;;;;;;6223900;28;20578;-65
2021/10/22 14:28:54;;;;;;;3.80;3.40;;;19.20;64.10;;;;;;6200506;28;20236;-65
2021/10/22 14:31:59;;;;;;;6.00;3.50;;;18.90;66.30;;;;;;6201524;28;20222;-66
2021/10/22 14:35:03;;;;;;;4.37;2.90;;;18.70;67.90;;;;;;6202897;28;20256;-65
2021/10/22 14:38:06;;;;;;;4.80;3.43;;;18.70;69.00;;;;;;6203436;28;20236;-67
2021/10/22 14:41:10;;;;;;;3.80;3.07;;;18.60;70.20;;;;;;6202352;28;20269;-68
2021/10/22 14:44:19;;;;;;;3.90;3.60;;;18.50;71.20;;;;;;6202193;28;20225;-68
2021/10/22 14:47:34;;;;;;;3.63;2.63;;;18.20;72.10;;;;;;6203767;28;20229;-66
2021/10/22 14:50:39;;;;;;;4.67;3.10;;;18.10;73.70;;;;;;6203676;28;20242;-66
2021/10/22 14:53:48;;;;;;;3.67;3.03;;;17.90;75.10;;;;;;6199012;28;20481;-66
2021/10/22 14:56:51;;;;;;;4.57;3.40;;;17.50;77.30;;;;;;6209488;28;20480;-66
2021/10/22 14:59:55;;;;;;;6.77;3.57;;;17.30;79.20;;;;;;6217473;28;20479;-66
2021/10/22 15:03:05;;;;;;;6.03;3.60;;;17.20;80.40;;;;;;6209266;28;20469;-67
2021/10/22 15:06:09;;;;;;;4.57;3.20;;;17.10;81.70;;;;;;6200004;28;20473;-68
2021/10/22 15:09:12;;;;;;;4.80;3.30;;;16.90;83.70;;;;;;6200402;28;20477;-68
2021/10/22 15:12:15;;;;;;;4.37;3.80;;;16.80;85.20;;;;;;6201727;28;20576;-66
2021/10/22 15:15:19;;;;;;;3.50;3.20;;;16.60;86.50;;;;;;6200757;28;20484;-67
2021/10/22 15:18:23;;;;;;;3.60;3.30;;;16.70;87.40;;;;;;6200390;28;21003;-67
2021/10/22 15:21:26;;;;;;;4.37;3.97;;;16.60;88.30;;;;;;6198220;28;20476;-68
2021/10/22 15:24:30;;;;;;;5.67;4.13;;;16.50;89.50;;;;;;6200535;28;20493;-66
2021/10/22 15:27:33;;;;;;;5.57;4.20;;;16.40;90.30;;;;;;6201861;28;20477;-66
2021/10/22 15:30:37;;;;;;;5.20;4.30;;;16.30;90.80;;;;;;6201146;28;20590;-66
2021/10/22 15:33:42;;;;;;;4.70;4.23;;;16.20;91.80;;;;;;6200676;28;20483;-67
2021/10/22 15:36:45;;;;;;;4.63;4.30;;;16.00;92.60;;;;;;6201016;28;20527;-66
2021/10/22 15:39:48;;;;;;;5.70;4.60;;;16.00;93.20;;;;;;6200341;28;20488;-66
2021/10/22 15:42:51;;;;;;;4.93;4.53;;;16.00;93.70;;;;;;6206587;28;20911;-65
2021/10/22 15:45:55;;;;;;;6.20;5.60;;;16.00;94.30;;;;;;6205270;28;20460;-64
2021/10/22 15:48:59;;;;;;;4.87;4.47;;;16.00;94.90;;;;;;6202926;28;20484;-66
2021/10/22 15:52:08;;;;;;;6.00;5.50;;;15.90;95.20;;;;;;6204494;28;20445;-67
2021/10/22 15:55:21;;;;;;;6.23;5.17;;;15.90;95.60;;;;;;6205239;28;20801;-66
2021/10/22 15:58:24;;;;;;;6.00;5.40;;;15.90;95.80;;;;;;6206593;28;20596;-67
2021/10/22 16:01:32;;;;;;;5.70;5.20;;;15.90;95.90;;;;;;6223087;28;20472;-68
2021/10/22 16:04:37;;;;;;;9.57;5.93;;;15.90;96.00;;;;;;6204350;28;20610;-67
2021/10/22 16:07:44;;;;;;;11.23;5.60;;;15.80;96.30;;;;;;6204046;28;20469;-68
2021/10/22 16:10:52;;;;;;;6.87;5.30;;;15.80;96.50;;;;;;6203880;28;20797;-67
2021/10/22 16:14:10;;;;;;;6.73;5.20;;;15.80;96.80;;;;;;6204088;28;20506;-67
2021/10/22 16:17:13;;;;;;;6.20;5.60;;;15.80;97.20;;;;;;6206090;28;20473;-67